createdAt,value
2022-09-23T00:01:19.389Z,10.70
2022-09-23T00:04:06.273Z,10.70
2022-09-23T00:06:52.919Z,10.60
2022-09-23T00:09:39.476Z,10.70
2022-09-23T00:12:27.280Z,10.70
2022-09-23T00:15:14.028Z,10.60
2022-09-23T00:18:00.440Z,10.60
2022-09-23T00:20:46.967Z,10.60
2022-09-23T00:23:33.535Z,10.60
2022-09-23T00:26:21.989Z,10.50
2022-09-23T00:29:10.112Z,10.50
2022-09-23T00:31:56.848Z,10.60
2022-09-23T00:34:45.278Z,10.50
2022-09-23T00:37:32.343Z,10.50
2022-09-23T00:40:19.319Z,10.50
2022-09-23T00:43:06.912Z,10.50
2022-09-23T00:45:55.281Z,10.50
2022-09-23T00:48:43.801Z,10.50
2022-09-23T00:51:35.914Z,10.50
2022-09-23T00:54:24.016Z,10.50
2022-09-23T00:57:12.149Z,10.50
2022-09-23T00:59:58.956Z,10.50
2022-09-23T01:02:47.762Z,10.50
2022-09-23T01:05:36.464Z,10.50
2022-09-23T01:08:24.495Z,10.50
2022-09-23T01:11:20.353Z,10.50
2022-09-23T01:14:26.299Z,10.50
2022-09-23T01:17:17.368Z,10.50
2022-09-23T01:20:24.384Z,10.50
2022-09-23T01:23:24.628Z,10.60
2022-09-23T01:26:43.749Z,10.60
2022-09-23T01:29:59.895Z,10.60
2022-09-23T01:33:05.647Z,10.70
2022-09-23T01:36:05.653Z,10.60
2022-09-23T01:38:59.934Z,10.70
2022-09-23T01:41:53.229Z,10.80
2022-09-23T01:44:44.625Z,10.80
2022-09-23T01:47:35.850Z,10.80
2022-09-23T01:50:45.803Z,10.70
2022-09-23T01:53:39.123Z,10.70
2022-09-23T01:56:29.980Z,10.70
2022-09-23T01:59:21.595Z,10.70
2022-09-23T02:02:15.283Z,10.80
2022-09-23T02:05:05.363Z,10.70
2022-09-23T02:07:59.864Z,10.80
2022-09-23T02:10:50.148Z,10.80
2022-09-23T02:13:42.025Z,10.70
2022-09-23T02:16:32.430Z,10.80
2022-09-23T02:19:24.433Z,10.80
2022-09-23T02:22:16.882Z,10.80
2022-09-23T02:25:05.269Z,10.70
2022-09-23T02:27:57.584Z,10.70
2022-09-23T02:30:49.562Z,10.80
2022-09-23T02:33:40.389Z,10.70
2022-09-23T02:36:32.337Z,10.80
2022-09-23T02:39:21.772Z,10.80
2022-09-23T02:42:13.497Z,10.80
2022-09-23T02:45:00.199Z,10.80
2022-09-23T02:47:49.683Z,10.80
2022-09-23T02:50:36.459Z,10.80
2022-09-23T02:53:24.428Z,10.80
2022-09-23T02:56:16.774Z,10.70
2022-09-23T02:59:05.780Z,10.70
2022-09-23T03:02:17.417Z,10.70
2022-09-23T03:05:12.728Z,10.80
2022-09-23T03:08:20.487Z,10.80
2022-09-23T03:11:08.592Z,10.80
2022-09-23T03:14:17.379Z,10.90
2022-09-23T03:17:06.989Z,10.90
2022-09-23T03:19:59.503Z,10.90
2022-09-23T03:22:48.796Z,10.90
2022-09-23T03:25:39.612Z,11.00
2022-09-23T03:28:27.216Z,11.10
2022-09-23T03:31:16.365Z,11.10
2022-09-23T03:34:06.456Z,11.10
2022-09-23T03:36:59.237Z,11.20
2022-09-23T03:39:50.924Z,11.20
2022-09-23T03:42:39.179Z,11.20
2022-09-23T03:45:36.562Z,11.30
2022-09-23T03:48:24.525Z,11.30
2022-09-23T03:51:24.804Z,11.30
2022-09-23T03:54:11.240Z,11.40
2022-09-23T03:56:58.463Z,11.40
2022-09-23T03:59:45.279Z,11.40
2022-09-23T04:02:32.294Z,11.40
2022-09-23T04:05:20.379Z,11.40
2022-09-23T04:08:07.109Z,11.40
2022-09-23T04:10:54.955Z,11.40
2022-09-23T04:13:41.645Z,11.40
2022-09-23T04:16:28.456Z,11.40
2022-09-23T04:19:15.851Z,11.50
2022-09-23T04:22:03.644Z,11.40
2022-09-23T04:24:50.339Z,11.40
2022-09-23T04:27:37.953Z,11.40
2022-09-23T04:30:24.544Z,11.40
2022-09-23T04:33:11.851Z,11.40
2022-09-23T04:35:58.362Z,11.40
2022-09-23T04:38:46.520Z,11.40
2022-09-23T04:41:32.880Z,11.40
2022-09-23T04:44:21.020Z,11.40
2022-09-23T04:47:07.612Z,11.40
2022-09-23T04:49:59.019Z,11.40
2022-09-23T04:52:46.261Z,11.30
2022-09-23T04:55:34.163Z,11.30
2022-09-23T04:58:22.979Z,11.40
2022-09-23T05:01:11.182Z,11.30
2022-09-23T05:04:02.349Z,11.40
2022-09-23T05:06:49.255Z,11.40
2022-09-23T05:09:35.916Z,11.40
2022-09-23T05:12:23.479Z,11.40
2022-09-23T05:15:09.981Z,11.30
2022-09-23T05:17:58.624Z,11.30
2022-09-23T05:20:45.152Z,11.30
2022-09-23T05:23:31.926Z,11.30
2022-09-23T05:26:18.391Z,11.30
2022-09-23T05:29:06.400Z,11.30
2022-09-23T05:31:53.253Z,11.20
2022-09-23T05:34:40.272Z,11.30
2022-09-23T05:37:26.700Z,11.30
2022-09-23T05:40:13.127Z,11.20
2022-09-23T05:42:59.448Z,11.20
2022-09-23T05:45:47.316Z,11.30
2022-09-23T05:48:34.232Z,11.20
2022-09-23T05:51:22.615Z,11.30
2022-09-23T05:54:09.574Z,11.30
2022-09-23T05:56:57.675Z,11.30
2022-09-23T05:59:47.721Z,11.30
2022-09-23T06:02:35.537Z,11.30
2022-09-23T06:05:22.494Z,11.30
2022-09-23T06:08:10.224Z,11.30
2022-09-23T06:10:57.257Z,11.30
2022-09-23T06:13:43.670Z,11.30
2022-09-23T06:16:32.140Z,11.30
2022-09-23T06:19:20.261Z,11.30
2022-09-23T06:22:06.736Z,11.30
2022-09-23T06:24:53.218Z,11.30
2022-09-23T06:27:39.580Z,11.30
2022-09-23T06:30:27.555Z,11.30
2022-09-23T06:33:17.269Z,11.30
2022-09-23T06:36:08.672Z,11.30
2022-09-23T06:38:56.096Z,11.40
2022-09-23T06:41:42.808Z,11.40
2022-09-23T06:44:29.392Z,11.40
2022-09-23T06:47:15.907Z,11.50
2022-09-23T06:50:02.252Z,11.60
2022-09-23T06:52:54.839Z,11.70
2022-09-23T06:55:41.475Z,11.70
2022-09-23T06:58:28.244Z,11.80
2022-09-23T07:01:17.119Z,12.00
2022-09-23T07:04:03.952Z,12.10
2022-09-23T07:06:50.391Z,12.20
2022-09-23T07:09:38.532Z,12.20
2022-09-23T07:12:24.900Z,12.30
2022-09-23T07:15:12.327Z,12.40
2022-09-23T07:17:59.024Z,12.50
2022-09-23T07:20:46.559Z,12.60
2022-09-23T07:23:33.546Z,12.60
2022-09-23T07:26:22.830Z,12.70
2022-09-23T07:29:13.260Z,12.80
2022-09-23T07:32:10.809Z,12.80
2022-09-23T07:34:59.992Z,12.80
2022-09-23T07:37:46.397Z,12.90
2022-09-23T07:40:32.681Z,12.90
2022-09-23T07:43:20.937Z,12.90
2022-09-23T07:46:10.275Z,13.00
2022-09-23T07:48:57.357Z,13.10
2022-09-23T07:51:45.988Z,13.20
2022-09-23T07:54:32.953Z,13.30
2022-09-23T07:57:19.778Z,13.40
2022-09-23T08:00:08.912Z,13.50
2022-09-23T08:02:55.643Z,13.60
2022-09-23T08:05:42.092Z,13.70
2022-09-23T08:08:29.204Z,13.80
2022-09-23T08:11:15.881Z,13.80
2022-09-23T08:14:02.195Z,13.80
2022-09-23T08:16:51.912Z,13.90
2022-09-23T08:19:38.491Z,13.90
2022-09-23T08:22:24.691Z,14.00
2022-09-23T08:25:11.241Z,14.00
2022-09-23T08:27:58.060Z,14.10
2022-09-23T08:30:45.097Z,14.10
2022-09-23T08:33:32.723Z,14.20
2022-09-23T08:36:19.053Z,14.30
2022-09-23T08:39:06.704Z,14.40
2022-09-23T08:42:08.173Z,14.50
2022-09-23T08:44:58.851Z,14.60
2022-09-23T08:47:53.324Z,14.70
2022-09-23T08:50:44.002Z,14.80
2022-09-23T08:53:33.527Z,14.90
2022-09-23T08:56:23.502Z,15.10
2022-09-23T08:59:15.632Z,15.10
2022-09-23T09:02:07.220Z,15.10
2022-09-23T09:04:58.004Z,15.40
2022-09-23T09:07:46.336Z,15.50
2022-09-23T09:10:41.450Z,15.70
2022-09-23T09:13:33.153Z,15.70
2022-09-23T09:17:01.240Z,15.80
2022-09-23T09:20:01.264Z,15.90
2022-09-23T09:22:54.482Z,16.00
2022-09-23T09:25:46.131Z,16.10
2022-09-23T09:28:40.962Z,16.20
2022-09-23T09:31:32.108Z,16.30
2022-09-23T09:34:29.656Z,16.50
2022-09-23T09:37:21.746Z,16.50
2022-09-23T09:40:13.263Z,16.60
2022-09-23T09:42:59.860Z,16.70
2022-09-23T09:45:59.153Z,16.70
2022-09-23T09:48:53.679Z,16.90
2022-09-23T09:51:41.283Z,16.90
2022-09-23T09:54:28.280Z,16.90
2022-09-23T09:57:32.097Z,17.10
2022-09-23T10:00:38.276Z,17.20
2022-09-23T10:03:35.306Z,17.20
2022-09-23T10:06:24.765Z,17.30
2022-09-23T10:09:16.991Z,17.40
2022-09-23T10:12:13.125Z,17.30
2022-09-23T10:15:01.092Z,17.40
2022-09-23T10:17:51.750Z,17.70
2022-09-23T10:20:39.053Z,17.60
2022-09-23T10:23:29.731Z,17.60
2022-09-23T10:26:17.487Z,17.70
2022-09-23T10:29:12.141Z,17.80
2022-09-23T10:32:27.041Z,17.80
2022-09-23T10:35:16.620Z,17.80
2022-09-23T10:38:03.239Z,17.90
2022-09-23T10:41:07.260Z,17.90
2022-09-23T10:44:26.112Z,18.00
2022-09-23T10:47:23.857Z,18.10
2022-09-23T10:50:30.644Z,18.10
2022-09-23T10:53:26.122Z,18.20
2022-09-23T10:56:22.763Z,18.20
2022-09-23T10:59:43.510Z,18.20
2022-09-23T11:02:48.063Z,18.20
2022-09-23T11:05:42.011Z,18.10
2022-09-23T11:08:44.627Z,18.00
2022-09-23T11:11:41.435Z,18.10
2022-09-23T11:15:07.306Z,18.10
2022-09-23T11:18:26.765Z,18.10
2022-09-23T11:21:36.239Z,18.20
2022-09-23T11:24:50.264Z,18.20
2022-09-23T11:27:46.833Z,18.30
2022-09-23T11:30:44.291Z,18.30
2022-09-23T11:33:46.867Z,18.40
2022-09-23T11:36:37.541Z,18.40
2022-09-23T11:39:30.068Z,18.40
2022-09-23T11:42:22.298Z,18.30
2022-09-23T11:45:19.017Z,18.40
2022-09-23T11:48:09.725Z,18.40
2022-09-23T11:51:01.525Z,18.50
2022-09-23T11:53:52.853Z,18.50
2022-09-23T11:56:47.370Z,18.60
2022-09-23T11:59:41.259Z,18.70
2022-09-23T12:02:33.641Z,18.70
2022-09-23T12:05:24.907Z,18.80
2022-09-23T12:08:23.690Z,18.70
2022-09-23T12:11:22.562Z,18.60
2022-09-23T12:14:19.352Z,18.60
2022-09-23T12:17:22.359Z,18.70
2022-09-23T12:20:27.891Z,18.70
2022-09-23T12:23:30.602Z,18.80
2022-09-23T12:26:21.244Z,18.80
2022-09-23T12:29:11.628Z,18.90
2022-09-23T12:31:58.435Z,18.80
2022-09-23T12:34:49.192Z,18.90
2022-09-23T12:37:39.070Z,19.00
2022-09-23T12:40:32.901Z,19.00
2022-09-23T12:43:20.966Z,18.90
2022-09-23T12:46:23.453Z,18.90
2022-09-23T12:49:26.249Z,19.00
2022-09-23T12:52:26.588Z,18.90
2022-09-23T12:55:46.997Z,19.00
2022-09-23T12:58:58.802Z,19.00
2022-09-23T13:01:46.563Z,18.90
2022-09-23T13:05:03.304Z,19.00
2022-09-23T13:07:51.581Z,19.00
2022-09-23T13:10:48.321Z,18.90
2022-09-23T13:13:39.695Z,19.00
2022-09-23T13:16:32.095Z,19.10
2022-09-23T13:19:50.109Z,19.10
2022-09-23T13:23:06.088Z,19.10
2022-09-23T13:25:57.121Z,19.20
2022-09-23T13:28:56.053Z,19.30
2022-09-23T13:31:46.373Z,19.30
2022-09-23T13:34:35.952Z,19.20
2022-09-23T13:37:24.817Z,19.20
2022-09-23T13:40:19.778Z,19.10
2022-09-23T13:43:11.166Z,19.10
2022-09-23T13:45:58.360Z,19.10
2022-09-23T13:48:48.957Z,19.10
2022-09-23T13:51:36.959Z,19.20
2022-09-23T13:54:32.359Z,19.40
2022-09-23T13:57:26.739Z,19.40
2022-09-23T14:00:21.207Z,19.40
2022-09-23T14:03:26.257Z,19.40
2022-09-23T14:06:16.023Z,19.40
2022-09-23T14:09:03.285Z,19.30
2022-09-23T14:11:51.691Z,19.20
2022-09-23T14:14:41.077Z,19.10
2022-09-23T14:17:27.501Z,19.10
2022-09-23T14:20:15.575Z,19.10
2022-09-23T14:23:11.704Z,19.00
2022-09-23T14:25:59.943Z,19.00
2022-09-23T14:28:48.141Z,19.00
2022-09-23T14:31:34.896Z,18.90
2022-09-23T14:34:44.652Z,18.90
2022-09-23T14:37:50.960Z,18.80
2022-09-23T14:40:51.560Z,18.90
2022-09-23T14:43:38.156Z,18.90
2022-09-23T14:46:27.200Z,18.80
2022-09-23T14:49:18.324Z,18.80
2022-09-23T14:52:07.719Z,18.80
2022-09-23T14:54:54.113Z,18.80
2022-09-23T14:57:43.326Z,18.80
2022-09-23T15:00:31.164Z,18.80
2022-09-23T15:03:18.645Z,18.80
2022-09-23T15:06:09.199Z,18.70
2022-09-23T15:08:56.911Z,18.70
2022-09-23T15:11:43.739Z,18.70
2022-09-23T15:14:39.772Z,18.70
2022-09-23T15:17:33.951Z,18.70
2022-09-23T15:20:24.821Z,18.70
2022-09-23T15:23:34.136Z,18.60
2022-09-23T15:26:22.328Z,18.70
2022-09-23T15:29:10.239Z,18.70
2022-09-23T15:31:58.488Z,18.70
2022-09-23T15:34:45.354Z,18.60
2022-09-23T15:37:36.178Z,18.50
2022-09-23T15:40:25.440Z,18.60
2022-09-23T15:43:20.903Z,18.60
2022-09-23T15:46:10.033Z,18.60
2022-09-23T15:49:00.601Z,18.50
2022-09-23T15:51:47.358Z,18.50
2022-09-23T15:54:33.931Z,18.50
2022-09-23T15:57:21.575Z,18.50
2022-09-23T16:00:12.224Z,18.40
2022-09-23T16:02:59.169Z,18.40
2022-09-23T16:05:48.918Z,18.40
2022-09-23T16:08:35.466Z,18.30
2022-09-23T16:11:24.388Z,18.20
2022-09-23T16:14:14.409Z,18.20
2022-09-23T16:17:03.489Z,18.10
2022-09-23T16:19:50.125Z,18.10
2022-09-23T16:22:38.309Z,18.10
2022-09-23T16:25:27.403Z,18.10
2022-09-23T16:28:13.680Z,17.90
2022-09-23T16:31:00.119Z,17.70
2022-09-23T16:33:47.820Z,17.70
2022-09-23T16:36:35.873Z,17.80
2022-09-23T16:39:23.585Z,17.80
2022-09-23T16:42:10.442Z,17.70
2022-09-23T16:44:57.180Z,17.80
2022-09-23T16:47:45.354Z,17.70
2022-09-23T16:50:33.511Z,17.60
2022-09-23T16:53:20.089Z,17.60
2022-09-23T16:56:09.801Z,17.50
2022-09-23T16:58:57.307Z,17.40
2022-09-23T17:02:01.658Z,17.40
2022-09-23T17:04:48.107Z,17.30
2022-09-23T17:07:34.567Z,17.30
2022-09-23T17:10:21.464Z,17.30
2022-09-23T17:13:09.889Z,17.30
2022-09-23T17:15:56.690Z,17.20
2022-09-23T17:18:43.916Z,17.20
2022-09-23T17:21:30.296Z,17.20
2022-09-23T17:24:16.867Z,17.10
2022-09-23T17:27:03.773Z,17.00
2022-09-23T17:29:51.747Z,17.00
2022-09-23T17:32:38.098Z,17.00
2022-09-23T17:35:24.569Z,16.90
2022-09-23T17:38:10.909Z,16.80
2022-09-23T17:40:59.131Z,16.80
2022-09-23T17:43:46.704Z,16.80
2022-09-23T17:46:34.844Z,16.70
2022-09-23T17:49:21.975Z,16.70
2022-09-23T17:52:08.749Z,16.60
2022-09-23T17:54:55.287Z,16.60
2022-09-23T17:57:41.729Z,16.60
2022-09-23T18:00:28.174Z,16.60
2022-09-23T18:03:15.892Z,16.50
2022-09-23T18:06:10.349Z,16.50
2022-09-23T18:08:56.945Z,16.40
2022-09-23T18:11:45.308Z,16.40
2022-09-23T18:14:31.805Z,16.40
2022-09-23T18:17:18.453Z,16.40
2022-09-23T18:20:07.820Z,16.30
2022-09-23T18:22:54.420Z,16.30
2022-09-23T18:25:40.741Z,16.20
2022-09-23T18:28:34.029Z,16.20
2022-09-23T18:31:22.572Z,16.20
2022-09-23T18:34:12.419Z,16.20
2022-09-23T18:37:00.390Z,16.10
2022-09-23T18:39:48.553Z,16.10
2022-09-23T18:42:35.009Z,16.00
2022-09-23T18:45:21.376Z,16.00
2022-09-23T18:48:27.774Z,16.00
2022-09-23T18:51:16.515Z,15.90
2022-09-23T18:54:06.630Z,16.00
2022-09-23T18:56:53.490Z,15.90
2022-09-23T18:59:40.003Z,15.90
2022-09-23T19:02:26.967Z,15.90
2022-09-23T19:05:13.421Z,15.90
2022-09-23T19:07:59.653Z,15.80
2022-09-23T19:10:56.391Z,15.70
2022-09-23T19:13:43.030Z,15.80
2022-09-23T19:16:31.777Z,15.70
2022-09-23T19:19:18.573Z,15.70
2022-09-23T19:22:04.903Z,15.70
2022-09-23T19:24:51.231Z,15.70
2022-09-23T19:27:40.191Z,15.70
2022-09-23T19:30:26.540Z,15.70
2022-09-23T19:33:12.921Z,15.70
2022-09-23T19:35:59.280Z,15.70
2022-09-23T19:38:45.603Z,15.70
2022-09-23T19:41:33.528Z,15.60
2022-09-23T19:44:21.403Z,15.60
2022-09-23T19:47:08.183Z,15.60
2022-09-23T19:49:54.953Z,15.60
2022-09-23T19:52:41.427Z,15.60
2022-09-23T19:55:28.264Z,15.50
2022-09-23T19:58:14.952Z,15.50
2022-09-23T20:01:07.026Z,15.50
2022-09-23T20:03:54.045Z,15.50
2022-09-23T20:06:40.995Z,15.50
2022-09-23T20:09:28.932Z,15.60
2022-09-23T20:12:15.515Z,15.60
2022-09-23T20:15:01.943Z,15.60
2022-09-23T20:17:49.637Z,15.50
2022-09-23T20:20:35.981Z,15.60
2022-09-23T20:23:22.512Z,15.60
2022-09-23T20:26:27.138Z,15.60
2022-09-23T20:29:13.649Z,15.50
2022-09-23T20:32:00.172Z,15.50
2022-09-23T20:34:48.805Z,15.50
2022-09-23T20:37:35.130Z,15.50
2022-09-23T20:40:23.038Z,15.50
2022-09-23T20:43:10.055Z,15.50
2022-09-23T20:45:56.777Z,15.50
2022-09-23T20:48:43.325Z,15.40
2022-09-23T20:51:33.292Z,15.30
2022-09-23T20:54:20.002Z,15.40
2022-09-23T20:57:06.313Z,15.40
2022-09-23T20:59:53.097Z,15.40
2022-09-23T21:02:39.922Z,15.40
2022-09-23T21:05:26.338Z,15.40
2022-09-23T21:08:14.051Z,15.30
2022-09-23T21:11:02.388Z,15.30
2022-09-23T21:13:50.384Z,15.30
2022-09-23T21:16:37.112Z,15.20
2022-09-23T21:19:24.446Z,15.20
2022-09-23T21:22:12.399Z,15.10
2022-09-23T21:28:07.117Z,15.20
2022-09-23T21:30:53.524Z,15.20
2022-09-23T21:33:40.388Z,15.20
2022-09-23T21:36:28.225Z,15.10
2022-09-23T21:39:16.186Z,15.10
2022-09-23T21:42:03.965Z,15.10
2022-09-23T21:44:50.267Z,15.10
2022-09-23T21:47:36.688Z,15.10
2022-09-23T21:50:23.091Z,15.10
2022-09-23T21:53:10.037Z,15.10
2022-09-23T21:56:02.922Z,15.10
2022-09-23T21:58:52.138Z,15.10
2022-09-23T22:01:40.906Z,15.00
2022-09-23T22:04:27.445Z,15.00
2022-09-23T22:07:14.334Z,15.00
2022-09-23T22:10:00.713Z,14.90
2022-09-23T22:12:48.941Z,14.90
2022-09-23T22:15:37.537Z,15.00
2022-09-23T22:18:24.234Z,14.90
2022-09-23T22:21:10.581Z,14.90
2022-09-23T22:23:58.527Z,14.90
2022-09-23T22:26:45.915Z,14.90
2022-09-23T22:29:49.838Z,14.90
2022-09-23T22:32:46.180Z,14.90
2022-09-23T22:35:32.617Z,14.90
2022-09-23T22:38:19.059Z,14.80
2022-09-23T22:41:05.698Z,14.80
2022-09-23T22:43:53.885Z,14.80
2022-09-23T22:46:40.367Z,14.80
2022-09-23T22:49:28.034Z,14.80
2022-09-23T22:52:16.143Z,14.70
2022-09-23T22:55:03.644Z,14.80
2022-09-23T22:57:51.533Z,14.80
2022-09-23T23:00:38.634Z,14.80
2022-09-23T23:03:26.791Z,14.80
2022-09-23T23:06:14.692Z,14.80
2022-09-23T23:09:02.012Z,14.70
2022-09-23T23:11:48.523Z,14.70
2022-09-23T23:14:36.979Z,14.70
2022-09-23T23:17:23.547Z,14.70
2022-09-23T23:20:10.777Z,14.70
2022-09-23T23:23:01.176Z,14.70
2022-09-23T23:25:47.436Z,14.80
2022-09-23T23:28:33.894Z,14.70
2022-09-23T23:31:22.787Z,14.70
2022-09-23T23:34:12.253Z,14.60
2022-09-23T23:36:58.600Z,14.60
2022-09-23T23:39:47.774Z,14.60
2022-09-23T23:42:34.740Z,14.60
2022-09-23T23:45:21.604Z,14.60
2022-09-23T23:48:08.078Z,14.60
2022-09-23T23:50:55.313Z,14.60
2022-09-23T23:53:43.410Z,14.60
2022-09-23T23:56:32.066Z,14.60
2022-09-23T23:59:20.153Z,14.60
